LFRB 181700Z AUTO 20010KT 2600 BR OVC002 18/17 Q1018 TEMPO 3000 DZ

ElémentsDécodage
LFRB Station météo située sur l'aérodrome de BREST Guipavas
181700Z émis le 18 du mois à 17h00 UTC
AUTO Bulletin édité par un automate
20010KT vent du 200°, 10 noeuds
2600 visibilité horizontale de 2600 mètres
BR brume
OVC002 couverture nuageuse totale (8/8) à 200 pieds
18/17 température 18°C, point de rosée 17°C
 soit une humidité relative de 94%
Q1018 la pression au niveau de la mer (QNH) est de 1018 hPa
TEMPO fluctuation temporaire prévue
3000 visibilité horizontale de 3000 mètres
DZ bruine